Résultats

Cross de la Nativit. Édition 2015.

1 Km
27/03/2015 à 08:00:00 - Aix en Provence (0)
92 arrivant(e)s.


 
Les autres classements de cet évènement




Place▲ Temps Dossard Nom Prenom Categ #Categ Sexe #Sexe Club Vit Moy Diplôme Partager
1 00:05:05 363 GUAY MATHIS BEM 1 M 1 5 4 0
2 00:05:14 390 BESSE PABLO BEM 2 M 2 5 5 0
3 00:05:19 311 JOUBEAUX ARTHUR BEM 3 M 3 5 2 0
4 00:05:20 297 BOURDON JULES BEM 4 M 4 5 2 0
5 00:05:21 333 DE-BONNIERES ANTOINE BEM 5 M 5 5 3 0
6 00:05:28 321 UNAL NOYAN BEM 6 M 6 5 2 0
7 00:05:28 432 KLINCKEMAILLIE LOUIS BEM 7 M 7 5 6 0
8 00:05:37 343 MAUDUIT ROMAIN BEM 8 M 8 5 3 0
9 00:05:38 439 MERY ALEXANDRE BEM 9 M 9 5 6 0
10 00:05:38 465 JOLLAND MILO BEM 10 M 10 5 7 0
11 00:05:39 408 PECOT-GRILL LEO MIM 1 M 11 5 5 0
12 00:05:39 389 BERTHE HUGO BEM 11 M 12 5 5 0
13 00:05:42 447 ROUX VICTOR BEM 12 M 13 5 6 0
14 00:05:42 453 BORTOLI VALENTIN BEM 13 M 14 5 7 0
15 00:05:45 455 CARON NEIL BEM 14 M 15 5 7 0
16 00:05:47 451 BAROUX ALEXANDRE BEM 15 M 16 5 7 0
17 00:05:48 456 CHERRY THOMAS BEM 16 M 17 5 7 0
18 00:05:48 474 RONOT BAPTISTE BEM 17 M 18 5 7 0
19 00:05:49 328 BOITEUX LUKA BEM 18 M 19 5 3 0
20 00:05:50 327 BERTHIER MAXIME BEM 19 M 20 5 3 0
21 00:05:54 285 MEDEBBEUR ILIAN BEM 20 M 21 5 1 0
22 00:05:57 341 LARRONDO MAXIME BEM 21 M 22 5 3 0
23 00:05:59 449 VILLECROZE SACHA BEM 22 M 23 5 6 0
24 00:06:01 386 VINCOURT ELIOTT BEM 23 M 24 5 4 0
25 00:06:02 429 GARDET QUENTIN BEM 24 M 25 5 6 0
26 00:06:02 308 GROUALLE BASTIEN BEM 25 M 26 5 2 0
27 00:06:03 322 VIGNOLLES THIBAULT BEM 26 M 27 5 2 0
28 00:06:03 438 MAZARI MAXIME BEM 27 M 28 5 6 0
29 00:06:05 413 SORE-LARREGAIN JULES BEM 28 M 29 5 5 0
30 00:06:06 354 VIELLE THOMAS BEM 29 M 30 5 3 0
31 00:06:07 347 MONDIN GAUTHIER BEM 30 M 31 5 3 0
32 00:06:07 313 MESTRE MATTEO BEM 31 M 32 5 2 0
33 00:06:07 360 CISAMOLO AUGUSTIN BEM 32 M 33 5 4 0
34 00:06:08 342 LONGUEVILLE NICOLAS BEM 33 M 34 5 3 0
35 00:06:08 344 MERCIER LOAN BEM 34 M 35 5 3 0
36 00:06:08 374 PETIT DAMIEN BEM 35 M 36 5 4 0
37 00:06:10 457 CORRE WILLIAM BEM 36 M 37 5 7 0
38 00:06:11 459 DUVAL GABRIEL BEM 37 M 38 5 7 0
39 00:06:12 291 TROISE ADRIEN BEM 38 M 39 5 1 0
40 00:06:13 473 RENE-WORMS VINCENT BEM 39 M 40 5 7 0
41 00:06:14 370 MARIANI MAXIME BEM 40 M 41 5 4 0
42 00:06:14 450 ARMAND CAMILLE BEM 41 M 42 5 7 0
43 00:06:16 306 GAUTHIER ETIENNE BEM 42 M 43 5 2 0
44 00:06:17 435 LEROY ALEXIS BEM 43 M 44 5 6 0
45 00:06:24 463 FOURQUET MATEO BEM 44 M 45 5 7 0
46 00:06:26 426 COURTIER AYMERIC BEM 45 M 46 5 6 0
47 00:06:27 442 MOURON YANIS BEM 46 M 47 5 6 0
48 00:06:27 345 MILLEVILLE AXEL BEM 47 M 48 5 3 0
49 00:06:27 395 ESMIOL FABIO BEM 48 M 49 5 5 0
50 00:06:27 288 RICHAUD MARIUS BEM 49 M 50 5 1 0
51 00:06:27 283 HIVER NATHANAEL BEM 50 M 51 5 1 0
52 00:06:28 436 LUCA LIVIO BEM 51 M 52 5 6 0
53 00:06:28 301 DAVID MAXIME BEM 52 M 53 5 2 0
54 00:06:29 401 HOUY NICOLAS BEM 53 M 54 5 5 0
55 00:06:30 410 REUSA-VERDONI ANTOINE BEM 54 M 55 5 5 0
56 00:06:31 324 WALTER LOIC BEM 55 M 56 5 2 0
57 00:06:33 331 DANE SAM BEM 56 M 57 5 3 0
58 00:06:34 274 CRISTOFINI THEO BEM 57 M 58 5 1 0
59 00:06:36 350 ROCHEREUX-TEISSIER LOUIS BEM 58 M 59 5 3 0
60 00:06:36 269 BADA ROMAIN POM 1 M 60 5 1 0
61 00:06:36 471 PLAUT ALEX BEM 59 M 61 5 7 0
62 00:06:43 380 TAIEB RUDY BEM 60 M 62 5 4 0
63 00:06:44 411 SANYAS ARTHUR BEM 61 M 63 5 5 0
64 00:06:45 420 BAGLIONE PIERRE-SACHA BEM 62 M 64 5 6 0
65 00:06:46 286 MENARD-LANSAC JOSEPH BEM 63 M 65 5 1 0
66 00:06:47 458 DAVID ALEXANDRE BEM 64 M 66 5 7 0
67 00:06:48 428 DHONDT MAXENCE BEM 65 M 67 5 6 0
68 00:06:49 393 DADOLLE TRISTAN MIM 2 M 68 5 5 0
69 00:06:49 382 TERRANOVA ENZO BEM 66 M 69 5 4 0
70 00:06:49 391 CAUMEIL HELIAN POM 2 M 70 5 5 0
71 00:06:50 361 DEAL BAPTISTE MIM 3 M 71 5 4 0
72 00:06:51 358 BENOIT-DU-REY VINCENT BEM 67 M 72 5 4 0
73 00:06:52 460 ELYAHMIDI NASSIM BEM 68 M 73 5 7 0
74 00:06:53 268 ARQUIER NATHAN BEM 69 M 74 5 1 0
75 00:06:53 385 VIGREUX CHARLES BEM 70 M 75 5 4 0
76 00:07:02 477 THIRION ETHAN BEM 71 M 76 5 7 0
77 00:07:03 368 LOVICHI ELIOR BEM 72 M 77 5 4 0
78 00:07:05 275 DEVENNE GABRIEL BEM 73 M 78 5 1 0
79 00:07:07 454 BOUC VALENTIN BEM 74 M 79 5 7 0
80 00:07:14 277 GANDRA-MORENO NATHAN BEM 75 M 80 5 1 0
81 00:07:16 464 FROMENT PAUL BEM 76 M 81 5 7 0
82 00:07:18 430 GARDET THEO BEM 77 M 82 5 6 0
83 00:07:19 280 GUERINEL PIERRICK BEM 78 M 83 5 1 0
84 00:07:20 319 TAELMAN ROBIN BEM 79 M 84 5 2 0
85 00:07:22 302 DE-PALMA ALEXANDRE BEM 80 M 85 5 2 0
86 00:07:25 470 PERRONE TEO BEM 81 M 86 5 7 0
87 00:07:27 271 BERTHOLIO GUILLAUME BEM 82 M 87 5 1 0
88 00:07:36 367 LATRECHE ADRIEN BEM 83 M 88 5 4 0
89 00:07:38 292 VALBONETTI ANTONIN BEM 84 M 89 5 1 0
90 00:07:39 338 GAMBINO LEO BEM 85 M 90 5 3 0
91 00:07:42 369 MARGAILLAN KYLIAN BEM 86 M 91 5 4 0
92 00:07:42 310 JACQUELLE THIBAULT MIM 4 M 92 5 2 0